ルア の空港の天気 - METARとTAF

マルタ国際空港 ( LMML / MLA ) - マルタ ルア
飛行場実況気象(Metar)
観測時間04/25 09:45 CEST (04/25 07:45 UTC)
風向・風速東北東 8m/s
視程7000m
天気現象
少しの雲 雲底高度 400m
気温18℃
湿度88%
気圧1016hPa
METARLMML 250745Z 07015KT 7000 FEW013 18/16 Q1016 NOSIG RMK HAZE
過去の天気等 Google飛行場航空写真 Wunderground天気予報

過去48時間のMETAR

飛行場予報(TAF)
発表時間: 4/25 07:00 CEST (4/25 05:00 UTC)
予報対象時間: 25日8時 CEST ~ 26日8時 CEST
風向・風速東北東 7m/s
視程4000m
天気現象風塵
少しの雲 雲底高度 460m
25日8時 CEST ~ 25日11時 CEST に徐々に
視程9000m
25日20時 CEST ~ 26日8時 CEST に一時的に
視程8000m
全天の8割程度の雲 雲底高度 240m
TAF LMML 250500Z 2506/2606 07014KT 4000 DU FEW015
BECMG 2506/2509 9000
TEMPO 2518/2606 8000 BKN008